sensor_id;sensor_type;location;lat;lon;timestamp;P1;durP1;ratioP1;P2;durP2;ratioP2
55340;SDS011;58855;44.984;20.158;2022-08-07T00:00:33;16.33;;;6.97;;
55340;SDS011;58855;44.984;20.158;2022-08-07T00:02:59;16.10;;;7.47;;
55340;SDS011;58855;44.984;20.158;2022-08-07T00:05:26;18.27;;;7.25;;
55340;SDS011;58855;44.984;20.158;2022-08-07T00:07:52;15.23;;;8.27;;
55340;SDS011;58855;44.984;20.158;2022-08-07T00:10:19;11.45;;;8.38;;
55340;SDS011;58855;44.984;20.158;2022-08-07T00:12:47;12.98;;;7.38;;
55340;SDS011;58855;44.984;20.158;2022-08-07T00:15:13;7.63;;;6.15;;
55340;SDS011;58855;44.984;20.158;2022-08-07T00:17:39;12.98;;;6.82;;
55340;SDS011;58855;44.984;20.158;2022-08-07T00:20:05;15.60;;;7.55;;
55340;SDS011;58855;44.984;20.158;2022-08-07T00:22:32;16.20;;;7.72;;
55340;SDS011;58855;44.984;20.158;2022-08-07T00:24:58;14.10;;;6.50;;
55340;SDS011;58855;44.984;20.158;2022-08-07T00:27:24;10.18;;;6.50;;
55340;SDS011;58855;44.984;20.158;2022-08-07T00:29:50;15.40;;;7.35;;
55340;SDS011;58855;44.984;20.158;2022-08-07T00:32:16;12.82;;;7.22;;
55340;SDS011;58855;44.984;20.158;2022-08-07T00:34:45;12.00;;;7.60;;
55340;SDS011;58855;44.984;20.158;2022-08-07T00:37:13;19.38;;;9.63;;
55340;SDS011;58855;44.984;20.158;2022-08-07T00:39:40;16.60;;;7.88;;
55340;SDS011;58855;44.984;20.158;2022-08-07T00:42:06;14.02;;;7.95;;
55340;SDS011;58855;44.984;20.158;2022-08-07T00:44:32;15.05;;;7.53;;
55340;SDS011;58855;44.984;20.158;2022-08-07T00:47:02;11.93;;;7.70;;
55340;SDS011;58855;44.984;20.158;2022-08-07T00:49:29;14.73;;;8.02;;
55340;SDS011;58855;44.984;20.158;2022-08-07T00:51:56;12.52;;;6.90;;
55340;SDS011;58855;44.984;20.158;2022-08-07T00:54:23;13.95;;;7.00;;
55340;SDS011;58855;44.984;20.158;2022-08-07T00:56:49;13.75;;;6.95;;
55340;SDS011;58855;44.984;20.158;2022-08-07T00:59:19;12.18;;;7.70;;
55340;SDS011;58855;44.984;20.158;2022-08-07T01:01:45;10.98;;;7.13;;
55340;SDS011;58855;44.984;20.158;2022-08-07T01:04:12;11.90;;;6.70;;
55340;SDS011;58855;44.984;20.158;2022-08-07T01:06:40;14.52;;;7.03;;
55340;SDS011;58855;44.984;20.158;2022-08-07T01:09:06;10.73;;;7.18;;
55340;SDS011;58855;44.984;20.158;2022-08-07T01:11:32;14.73;;;7.50;;
55340;SDS011;58855;44.984;20.158;2022-08-07T01:13:59;9.63;;;6.57;;
55340;SDS011;58855;44.984;20.158;2022-08-07T01:16:25;21.27;;;6.55;;
55340;SDS011;58855;44.984;20.158;2022-08-07T01:18:52;19.15;;;6.20;;
55340;SDS011;58855;44.984;20.158;2022-08-07T01:21:19;12.57;;;6.43;;
55340;SDS011;58855;44.984;20.158;2022-08-07T01:23:48;14.00;;;6.18;;
55340;SDS011;58855;44.984;20.158;2022-08-07T01:26:15;13.40;;;6.63;;
55340;SDS011;58855;44.984;20.158;2022-08-07T01:28:42;8.73;;;6.22;;
55340;SDS011;58855;44.984;20.158;2022-08-07T01:31:08;8.65;;;6.53;;
55340;SDS011;58855;44.984;20.158;2022-08-07T01:33:35;12.30;;;6.47;;
55340;SDS011;58855;44.984;20.158;2022-08-07T01:36:02;16.15;;;7.07;;
55340;SDS011;58855;44.984;20.158;2022-08-07T01:38:28;13.90;;;5.78;;
55340;SDS011;58855;44.984;20.158;2022-08-07T01:40:58;10.35;;;6.22;;
55340;SDS011;58855;44.984;20.158;2022-08-07T01:43:25;9.98;;;6.50;;
55340;SDS011;58855;44.984;20.158;2022-08-07T01:45:51;8.00;;;5.97;;
55340;SDS011;58855;44.984;20.158;2022-08-07T01:48:18;10.02;;;6.05;;
55340;SDS011;58855;44.984;20.158;2022-08-07T01:50:45;8.70;;;5.80;;
55340;SDS011;58855;44.984;20.158;2022-08-07T01:53:12;8.68;;;5.85;;
55340;SDS011;58855;44.984;20.158;2022-08-07T01:55:41;16.90;;;5.82;;
55340;SDS011;58855;44.984;20.158;2022-08-07T01:58:10;8.98;;;5.53;;
55340;SDS011;58855;44.984;20.158;2022-08-07T02:00:38;16.88;;;6.30;;
55340;SDS011;58855;44.984;20.158;2022-08-07T02:03:06;13.32;;;6.20;;
55340;SDS011;58855;44.984;20.158;2022-08-07T02:05:35;6.68;;;5.57;;
55340;SDS011;58855;44.984;20.158;2022-08-07T02:08:05;16.75;;;7.30;;
55340;SDS011;58855;44.984;20.158;2022-08-07T02:10:32;10.20;;;5.15;;
55340;SDS011;58855;44.984;20.158;2022-08-07T02:12:59;8.52;;;5.22;;
55340;SDS011;58855;44.984;20.158;2022-08-07T02:15:26;14.38;;;5.22;;
55340;SDS011;58855;44.984;20.158;2022-08-07T02:17:54;10.32;;;5.95;;
55340;SDS011;58855;44.984;20.158;2022-08-07T02:20:20;13.75;;;5.28;;
55340;SDS011;58855;44.984;20.158;2022-08-07T02:22:47;9.00;;;4.85;;
55340;SDS011;58855;44.984;20.158;2022-08-07T02:25:15;10.10;;;5.65;;
55340;SDS011;58855;44.984;20.158;2022-08-07T02:27:42;13.00;;;4.63;;
55340;SDS011;58855;44.984;20.158;2022-08-07T02:30:09;8.60;;;5.30;;
55340;SDS011;58855;44.984;20.158;2022-08-07T02:32:36;10.40;;;5.25;;
55340;SDS011;58855;44.984;20.158;2022-08-07T02:35:03;13.90;;;5.18;;
55340;SDS011;58855;44.984;20.158;2022-08-07T02:37:30;12.18;;;5.00;;
55340;SDS011;58855;44.984;20.158;2022-08-07T02:39:57;9.30;;;5.18;;
55340;SDS011;58855;44.984;20.158;2022-08-07T02:42:24;12.13;;;5.43;;
55340;SDS011;58855;44.984;20.158;2022-08-07T02:44:51;11.38;;;5.03;;
55340;SDS011;58855;44.984;20.158;2022-08-07T02:47:18;10.38;;;4.80;;
55340;SDS011;58855;44.984;20.158;2022-08-07T02:49:44;8.80;;;5.10;;
55340;SDS011;58855;44.984;20.158;2022-08-07T02:52:12;12.20;;;6.10;;
55340;SDS011;58855;44.984;20.158;2022-08-07T02:54:40;16.42;;;5.75;;
55340;SDS011;58855;44.984;20.158;2022-08-07T02:57:07;6.72;;;5.05;;
55340;SDS011;58855;44.984;20.158;2022-08-07T02:59:37;10.90;;;5.00;;
55340;SDS011;58855;44.984;20.158;2022-08-07T03:02:03;8.30;;;5.47;;
55340;SDS011;58855;44.984;20.158;2022-08-07T03:04:30;9.18;;;5.53;;
55340;SDS011;58855;44.984;20.158;2022-08-07T03:06:56;10.15;;;5.10;;
55340;SDS011;58855;44.984;20.158;2022-08-07T03:09:24;8.43;;;5.15;;
55340;SDS011;58855;44.984;20.158;2022-08-07T03:11:51;12.75;;;5.50;;
55340;SDS011;58855;44.984;20.158;2022-08-07T03:14:17;8.00;;;4.82;;
55340;SDS011;58855;44.984;20.158;2022-08-07T03:16:44;10.68;;;4.40;;
55340;SDS011;58855;44.984;20.158;2022-08-07T03:19:11;8.38;;;5.70;;
55340;SDS011;58855;44.984;20.158;2022-08-07T03:21:37;9.55;;;5.18;;
55340;SDS011;58855;44.984;20.158;2022-08-07T03:24:03;8.30;;;5.28;;
55340;SDS011;58855;44.984;20.158;2022-08-07T03:26:30;8.95;;;5.53;;
55340;SDS011;58855;44.984;20.158;2022-08-07T03:28:57;8.40;;;4.97;;
55340;SDS011;58855;44.984;20.158;2022-08-07T03:31:25;9.15;;;5.15;;
55340;SDS011;58855;44.984;20.158;2022-08-07T03:33:55;8.10;;;5.40;;
55340;SDS011;58855;44.984;20.158;2022-08-07T03:36:23;7.90;;;4.82;;
55340;SDS011;58855;44.984;20.158;2022-08-07T03:38:51;10.27;;;4.80;;
55340;SDS011;58855;44.984;20.158;2022-08-07T03:41:17;9.13;;;4.88;;
55340;SDS011;58855;44.984;20.158;2022-08-07T03:43:44;7.65;;;5.22;;
55340;SDS011;58855;44.984;20.158;2022-08-07T03:46:10;10.55;;;5.00;;
55340;SDS011;58855;44.984;20.158;2022-08-07T03:48:37;11.68;;;4.97;;
55340;SDS011;58855;44.984;20.158;2022-08-07T03:51:04;10.23;;;5.20;;
55340;SDS011;58855;44.984;20.158;2022-08-07T03:53:30;7.95;;;4.93;;
55340;SDS011;58855;44.984;20.158;2022-08-07T03:55:56;9.82;;;5.10;;
55340;SDS011;58855;44.984;20.158;2022-08-07T03:58:24;7.07;;;5.68;;
55340;SDS011;58855;44.984;20.158;2022-08-07T04:00:51;8.52;;;5.20;;
55340;SDS011;58855;44.984;20.158;2022-08-07T04:03:17;11.00;;;5.28;;
55340;SDS011;58855;44.984;20.158;2022-08-07T04:05:44;10.70;;;4.35;;
55340;SDS011;58855;44.984;20.158;2022-08-07T04:08:11;8.80;;;4.80;;
55340;SDS011;58855;44.984;20.158;2022-08-07T04:10:40;8.45;;;4.70;;
55340;SDS011;58855;44.984;20.158;2022-08-07T04:13:07;7.03;;;4.30;;
55340;SDS011;58855;44.984;20.158;2022-08-07T04:15:35;7.20;;;4.22;;
55340;SDS011;58855;44.984;20.158;2022-08-07T04:18:01;8.77;;;4.30;;
55340;SDS011;58855;44.984;20.158;2022-08-07T04:20:28;11.75;;;4.60;;
55340;SDS011;58855;44.984;20.158;2022-08-07T04:22:54;8.27;;;4.28;;
55340;SDS011;58855;44.984;20.158;2022-08-07T04:25:21;8.10;;;4.25;;
55340;SDS011;58855;44.984;20.158;2022-08-07T04:27:48;7.18;;;4.45;;
55340;SDS011;58855;44.984;20.158;2022-08-07T04:30:14;8.05;;;4.43;;
55340;SDS011;58855;44.984;20.158;2022-08-07T04:32:40;7.35;;;4.40;;
55340;SDS011;58855;44.984;20.158;2022-08-07T04:35:07;9.10;;;4.30;;
55340;SDS011;58855;44.984;20.158;2022-08-07T04:37:33;9.85;;;4.43;;
55340;SDS011;58855;44.984;20.158;2022-08-07T04:40:00;8.20;;;4.15;;
55340;SDS011;58855;44.984;20.158;2022-08-07T04:42:26;13.23;;;4.78;;
55340;SDS011;58855;44.984;20.158;2022-08-07T04:44:56;8.20;;;4.60;;
55340;SDS011;58855;44.984;20.158;2022-08-07T04:47:27;6.72;;;4.28;;
55340;SDS011;58855;44.984;20.158;2022-08-07T04:50:09;6.18;;;4.18;;
55340;SDS011;58855;44.984;20.158;2022-08-07T04:52:43;8.93;;;4.50;;
55340;SDS011;58855;44.984;20.158;2022-08-07T04:55:31;8.10;;;5.07;;
55340;SDS011;58855;44.984;20.158;2022-08-07T05:00:52;7.47;;;4.07;;
55340;SDS011;58855;44.984;20.158;2022-08-07T05:05:49;8.15;;;4.35;;
55340;SDS011;58855;44.984;20.158;2022-08-07T05:11:04;8.05;;;4.40;;
55340;SDS011;58855;44.984;20.158;2022-08-07T05:13:35;9.75;;;4.13;;
55340;SDS011;58855;44.984;20.158;2022-08-07T05:16:03;7.35;;;4.20;;
55340;SDS011;58855;44.984;20.158;2022-08-07T05:18:44;10.93;;;4.35;;
55340;SDS011;58855;44.984;20.158;2022-08-07T05:21:11;6.60;;;4.70;;
55340;SDS011;58855;44.984;20.158;2022-08-07T05:23:44;7.85;;;4.47;;
55340;SDS011;58855;44.984;20.158;2022-08-07T05:26:16;10.15;;;5.90;;
55340;SDS011;58855;44.984;20.158;2022-08-07T05:28:42;10.02;;;4.10;;
55340;SDS011;58855;44.984;20.158;2022-08-07T05:31:10;10.85;;;4.10;;
55340;SDS011;58855;44.984;20.158;2022-08-07T05:33:37;8.35;;;4.47;;
55340;SDS011;58855;44.984;20.158;2022-08-07T05:36:08;9.50;;;4.15;;
55340;SDS011;58855;44.984;20.158;2022-08-07T05:38:34;5.22;;;4.20;;
55340;SDS011;58855;44.984;20.158;2022-08-07T05:41:02;6.50;;;3.75;;
55340;SDS011;58855;44.984;20.158;2022-08-07T05:43:28;6.35;;;3.97;;
55340;SDS011;58855;44.984;20.158;2022-08-07T05:45:55;9.13;;;4.20;;
55340;SDS011;58855;44.984;20.158;2022-08-07T05:48:22;6.40;;;4.00;;
55340;SDS011;58855;44.984;20.158;2022-08-07T05:50:48;6.45;;;4.28;;
55340;SDS011;58855;44.984;20.158;2022-08-07T05:53:15;8.55;;;4.28;;
55340;SDS011;58855;44.984;20.158;2022-08-07T05:55:41;6.25;;;4.32;;
55340;SDS011;58855;44.984;20.158;2022-08-07T05:58:08;10.07;;;3.60;;
55340;SDS011;58855;44.984;20.158;2022-08-07T06:00:35;9.05;;;3.80;;
55340;SDS011;58855;44.984;20.158;2022-08-07T06:03:02;9.13;;;3.60;;
55340;SDS011;58855;44.984;20.158;2022-08-07T06:05:30;6.90;;;4.10;;
55340;SDS011;58855;44.984;20.158;2022-08-07T06:07:57;9.05;;;3.40;;
55340;SDS011;58855;44.984;20.158;2022-08-07T06:10:24;5.85;;;3.60;;
55340;SDS011;58855;44.984;20.158;2022-08-07T06:12:51;6.78;;;3.40;;
55340;SDS011;58855;44.984;20.158;2022-08-07T06:15:17;7.13;;;3.75;;
55340;SDS011;58855;44.984;20.158;2022-08-07T06:17:43;8.43;;;3.42;;
55340;SDS011;58855;44.984;20.158;2022-08-07T06:20:10;9.10;;;3.78;;
55340;SDS011;58855;44.984;20.158;2022-08-07T06:22:36;9.23;;;3.35;;
55340;SDS011;58855;44.984;20.158;2022-08-07T06:25:03;7.75;;;3.95;;
55340;SDS011;58855;44.984;20.158;2022-08-07T06:27:29;7.00;;;3.50;;
55340;SDS011;58855;44.984;20.158;2022-08-07T06:29:55;7.45;;;3.63;;
55340;SDS011;58855;44.984;20.158;2022-08-07T06:32:21;6.30;;;3.42;;
55340;SDS011;58855;44.984;20.158;2022-08-07T06:34:48;13.40;;;3.80;;
55340;SDS011;58855;44.984;20.158;2022-08-07T06:37:14;5.80;;;3.72;;
55340;SDS011;58855;44.984;20.158;2022-08-07T06:39:40;6.45;;;3.60;;
55340;SDS011;58855;44.984;20.158;2022-08-07T06:42:16;6.57;;;4.38;;
55340;SDS011;58855;44.984;20.158;2022-08-07T06:44:44;6.22;;;3.67;;
55340;SDS011;58855;44.984;20.158;2022-08-07T06:47:11;6.50;;;3.75;;
55340;SDS011;58855;44.984;20.158;2022-08-07T06:49:37;9.35;;;3.70;;
55340;SDS011;58855;44.984;20.158;2022-08-07T06:52:03;5.95;;;3.85;;
55340;SDS011;58855;44.984;20.158;2022-08-07T06:54:31;9.88;;;3.30;;
55340;SDS011;58855;44.984;20.158;2022-08-07T06:56:57;8.23;;;3.53;;
55340;SDS011;58855;44.984;20.158;2022-08-07T06:59:30;8.13;;;3.80;;
55340;SDS011;58855;44.984;20.158;2022-08-07T07:04:23;6.32;;;3.88;;
55340;SDS011;58855;44.984;20.158;2022-08-07T07:06:50;7.38;;;4.22;;
55340;SDS011;58855;44.984;20.158;2022-08-07T07:09:17;6.85;;;4.22;;
55340;SDS011;58855;44.984;20.158;2022-08-07T07:12:00;6.05;;;3.25;;
55340;SDS011;58855;44.984;20.158;2022-08-07T07:14:30;5.40;;;3.55;;
55340;SDS011;58855;44.984;20.158;2022-08-07T07:16:58;7.60;;;3.28;;
55340;SDS011;58855;44.984;20.158;2022-08-07T07:19:29;5.00;;;3.33;;
55340;SDS011;58855;44.984;20.158;2022-08-07T07:21:55;7.47;;;3.70;;
55340;SDS011;58855;44.984;20.158;2022-08-07T07:24:21;5.10;;;3.38;;
55340;SDS011;58855;44.984;20.158;2022-08-07T07:26:48;5.78;;;3.88;;
55340;SDS011;58855;44.984;20.158;2022-08-07T07:29:15;7.30;;;4.35;;
55340;SDS011;58855;44.984;20.158;2022-08-07T07:31:43;6.57;;;3.83;;
55340;SDS011;58855;44.984;20.158;2022-08-07T07:34:12;12.25;;;3.60;;
55340;SDS011;58855;44.984;20.158;2022-08-07T07:36:39;7.03;;;3.67;;
55340;SDS011;58855;44.984;20.158;2022-08-07T07:39:06;6.03;;;3.22;;
55340;SDS011;58855;44.984;20.158;2022-08-07T07:41:33;6.05;;;3.67;;
55340;SDS011;58855;44.984;20.158;2022-08-07T07:44:01;9.90;;;3.55;;
55340;SDS011;58855;44.984;20.158;2022-08-07T07:46:28;10.27;;;4.70;;
55340;SDS011;58855;44.984;20.158;2022-08-07T07:48:55;9.20;;;3.50;;
55340;SDS011;58855;44.984;20.158;2022-08-07T07:51:21;9.05;;;3.95;;
55340;SDS011;58855;44.984;20.158;2022-08-07T07:53:49;8.70;;;4.20;;
55340;SDS011;58855;44.984;20.158;2022-08-07T07:56:16;10.77;;;3.92;;
55340;SDS011;58855;44.984;20.158;2022-08-07T07:58:43;7.65;;;3.90;;
55340;SDS011;58855;44.984;20.158;2022-08-07T08:01:10;8.68;;;3.75;;
55340;SDS011;58855;44.984;20.158;2022-08-07T08:03:37;10.65;;;4.10;;
55340;SDS011;58855;44.984;20.158;2022-08-07T08:06:05;12.77;;;7.93;;
55340;SDS011;58855;44.984;20.158;2022-08-07T08:08:31;12.75;;;7.90;;
55340;SDS011;58855;44.984;20.158;2022-08-07T08:10:58;11.70;;;6.95;;
55340;SDS011;58855;44.984;20.158;2022-08-07T08:13:25;15.00;;;6.70;;
55340;SDS011;58855;44.984;20.158;2022-08-07T08:15:52;13.35;;;5.88;;
55340;SDS011;58855;44.984;20.158;2022-08-07T08:18:18;8.52;;;3.80;;
55340;SDS011;58855;44.984;20.158;2022-08-07T08:20:45;8.10;;;4.03;;
55340;SDS011;58855;44.984;20.158;2022-08-07T08:23:12;7.95;;;4.07;;
55340;SDS011;58855;44.984;20.158;2022-08-07T08:25:58;10.07;;;4.88;;
55340;SDS011;58855;44.984;20.158;2022-08-07T08:28:44;8.40;;;4.00;;
55340;SDS011;58855;44.984;20.158;2022-08-07T08:31:13;8.95;;;4.38;;
55340;SDS011;58855;44.984;20.158;2022-08-07T08:33:40;5.95;;;3.58;;
55340;SDS011;58855;44.984;20.158;2022-08-07T08:36:07;10.82;;;3.65;;
55340;SDS011;58855;44.984;20.158;2022-08-07T08:38:35;18.65;;;9.98;;
55340;SDS011;58855;44.984;20.158;2022-08-07T08:41:20;16.10;;;12.00;;
55340;SDS011;58855;44.984;20.158;2022-08-07T08:49:20;9.18;;;5.40;;
55340;SDS011;58855;44.984;20.158;2022-08-07T08:52:11;8.77;;;3.97;;
55340;SDS011;58855;44.984;20.158;2022-08-07T08:54:42;13.73;;;11.68;;
55340;SDS011;58855;44.984;20.158;2022-08-07T08:57:12;14.77;;;10.52;;
55340;SDS011;58855;44.984;20.158;2022-08-07T09:00:01;17.33;;;11.80;;
55340;SDS011;58855;44.984;20.158;2022-08-07T09:10:18;8.43;;;4.05;;
55340;SDS011;58855;44.984;20.158;2022-08-07T09:12:52;5.35;;;3.65;;
55340;SDS011;58855;44.984;20.158;2022-08-07T09:17:52;10.70;;;3.88;;
55340;SDS011;58855;44.984;20.158;2022-08-07T09:23:08;8.23;;;4.00;;
55340;SDS011;58855;44.984;20.158;2022-08-07T09:25:48;6.72;;;4.30;;
55340;SDS011;58855;44.984;20.158;2022-08-07T09:28:28;10.82;;;3.90;;
55340;SDS011;58855;44.984;20.158;2022-08-07T09:36:32;4.97;;;3.70;;
55340;SDS011;58855;44.984;20.158;2022-08-07T09:41:43;6.78;;;3.70;;
55340;SDS011;58855;44.984;20.158;2022-08-07T09:52:19;8.10;;;3.97;;
55340;SDS011;58855;44.984;20.158;2022-08-07T09:55:00;13.18;;;4.55;;
55340;SDS011;58855;44.984;20.158;2022-08-07T10:10:29;7.35;;;4.40;;
55340;SDS011;58855;44.984;20.158;2022-08-07T10:13:13;7.68;;;3.97;;
55340;SDS011;58855;44.984;20.158;2022-08-07T10:34:24;7.40;;;4.47;;
55340;SDS011;58855;44.984;20.158;2022-08-07T10:44:56;11.55;;;4.82;;
55340;SDS011;58855;44.984;20.158;2022-08-07T10:58:12;7.78;;;4.03;;
55340;SDS011;58855;44.984;20.158;2022-08-07T11:00:35;6.90;;;3.97;;
55340;SDS011;58855;44.984;20.158;2022-08-07T11:03:14;11.88;;;3.72;;
55340;SDS011;58855;44.984;20.158;2022-08-07T11:15:58;6.15;;;4.20;;
55340;SDS011;58855;44.984;20.158;2022-08-07T11:26:13;6.90;;;4.70;;
55340;SDS011;58855;44.984;20.158;2022-08-07T11:28:50;6.78;;;4.32;;
55340;SDS011;58855;44.984;20.158;2022-08-07T11:31:36;8.30;;;3.90;;
55340;SDS011;58855;44.984;20.158;2022-08-07T11:34:21;6.95;;;4.90;;
55340;SDS011;58855;44.984;20.158;2022-08-07T11:37:01;6.90;;;4.07;;
55340;SDS011;58855;44.984;20.158;2022-08-07T11:42:25;8.63;;;4.03;;
55340;SDS011;58855;44.984;20.158;2022-08-07T11:52:54;9.52;;;4.40;;
55340;SDS011;58855;44.984;20.158;2022-08-07T11:58:18;7.05;;;3.88;;
55340;SDS011;58855;44.984;20.158;2022-08-07T12:08:47;10.02;;;3.83;;
55340;SDS011;58855;44.984;20.158;2022-08-07T12:11:23;6.93;;;3.45;;
55340;SDS011;58855;44.984;20.158;2022-08-07T12:14:10;8.48;;;3.63;;
55340;SDS011;58855;44.984;20.158;2022-08-07T12:16:50;7.72;;;3.60;;
55340;SDS011;58855;44.984;20.158;2022-08-07T12:19:20;6.72;;;3.78;;
55340;SDS011;58855;44.984;20.158;2022-08-07T12:24:46;10.75;;;4.22;;
55340;SDS011;58855;44.984;20.158;2022-08-07T12:27:26;11.52;;;3.75;;
55340;SDS011;58855;44.984;20.158;2022-08-07T12:29:58;6.80;;;3.80;;
55340;SDS011;58855;44.984;20.158;2022-08-07T12:34:53;10.10;;;3.90;;
55340;SDS011;58855;44.984;20.158;2022-08-07T12:37:19;7.45;;;3.75;;
55340;SDS011;58855;44.984;20.158;2022-08-07T12:39:47;9.60;;;3.50;;
55340;SDS011;58855;44.984;20.158;2022-08-07T12:42:14;6.03;;;3.92;;
55340;SDS011;58855;44.984;20.158;2022-08-07T12:44:42;11.15;;;3.30;;
55340;SDS011;58855;44.984;20.158;2022-08-07T12:47:11;9.90;;;3.75;;
55340;SDS011;58855;44.984;20.158;2022-08-07T12:55:28;8.40;;;4.18;;
55340;SDS011;58855;44.984;20.158;2022-08-07T12:57:56;7.10;;;3.40;;
55340;SDS011;58855;44.984;20.158;2022-08-07T13:00:37;6.28;;;3.20;;
55340;SDS011;58855;44.984;20.158;2022-08-07T13:03:09;11.33;;;3.90;;
55340;SDS011;58855;44.984;20.158;2022-08-07T13:05:40;10.57;;;3.75;;
55340;SDS011;58855;44.984;20.158;2022-08-07T13:08:33;6.85;;;3.10;;
55340;SDS011;58855;44.984;20.158;2022-08-07T13:14:01;7.20;;;3.35;;
55340;SDS011;58855;44.984;20.158;2022-08-07T13:16:47;16.15;;;3.63;;
55340;SDS011;58855;44.984;20.158;2022-08-07T13:27:39;7.78;;;3.35;;
55340;SDS011;58855;44.984;20.158;2022-08-07T13:30:07;7.88;;;3.78;;
55340;SDS011;58855;44.984;20.158;2022-08-07T13:40:42;8.93;;;3.13;;
55340;SDS011;58855;44.984;20.158;2022-08-07T13:43:12;7.55;;;3.17;;
55340;SDS011;58855;44.984;20.158;2022-08-07T13:45:40;6.00;;;3.92;;
55340;SDS011;58855;44.984;20.158;2022-08-07T13:48:06;9.95;;;3.22;;
55340;SDS011;58855;44.984;20.158;2022-08-07T13:50:32;6.30;;;2.80;;
55340;SDS011;58855;44.984;20.158;2022-08-07T13:53:02;8.48;;;3.45;;
55340;SDS011;58855;44.984;20.158;2022-08-07T13:55:29;6.38;;;2.90;;
55340;SDS011;58855;44.984;20.158;2022-08-07T13:58:05;6.18;;;3.22;;
55340;SDS011;58855;44.984;20.158;2022-08-07T14:00:51;6.53;;;3.08;;
55340;SDS011;58855;44.984;20.158;2022-08-07T14:03:18;6.05;;;3.40;;
55340;SDS011;58855;44.984;20.158;2022-08-07T14:05:45;11.25;;;3.42;;
55340;SDS011;58855;44.984;20.158;2022-08-07T14:08:12;6.45;;;2.97;;
55340;SDS011;58855;44.984;20.158;2022-08-07T14:10:39;10.68;;;4.13;;
55340;SDS011;58855;44.984;20.158;2022-08-07T14:13:05;9.32;;;3.05;;
55340;SDS011;58855;44.984;20.158;2022-08-07T14:18:05;7.93;;;3.67;;
55340;SDS011;58855;44.984;20.158;2022-08-07T14:20:33;5.28;;;3.00;;
55340;SDS011;58855;44.984;20.158;2022-08-07T14:23:04;7.22;;;3.10;;
55340;SDS011;58855;44.984;20.158;2022-08-07T14:25:32;8.23;;;3.03;;
55340;SDS011;58855;44.984;20.158;2022-08-07T14:28:02;7.03;;;3.53;;
55340;SDS011;58855;44.984;20.158;2022-08-07T14:30:29;7.20;;;3.25;;
55340;SDS011;58855;44.984;20.158;2022-08-07T14:32:56;6.53;;;3.95;;
55340;SDS011;58855;44.984;20.158;2022-08-07T14:35:24;7.95;;;3.30;;
55340;SDS011;58855;44.984;20.158;2022-08-07T14:37:51;12.35;;;3.97;;
55340;SDS011;58855;44.984;20.158;2022-08-07T14:40:19;11.65;;;3.78;;
55340;SDS011;58855;44.984;20.158;2022-08-07T14:42:45;8.18;;;3.22;;
55340;SDS011;58855;44.984;20.158;2022-08-07T14:45:17;13.50;;;3.53;;
55340;SDS011;58855;44.984;20.158;2022-08-07T14:47:43;6.38;;;3.42;;
55340;SDS011;58855;44.984;20.158;2022-08-07T14:50:11;6.43;;;3.30;;
55340;SDS011;58855;44.984;20.158;2022-08-07T14:52:43;10.48;;;3.40;;
55340;SDS011;58855;44.984;20.158;2022-08-07T14:55:12;7.45;;;3.70;;
55340;SDS011;58855;44.984;20.158;2022-08-07T14:57:42;7.28;;;3.47;;
55340;SDS011;58855;44.984;20.158;2022-08-07T15:00:12;8.68;;;3.70;;
55340;SDS011;58855;44.984;20.158;2022-08-07T15:02:38;7.28;;;3.80;;
55340;SDS011;58855;44.984;20.158;2022-08-07T15:05:08;12.88;;;3.50;;
55340;SDS011;58855;44.984;20.158;2022-08-07T15:07:40;9.77;;;4.07;;
55340;SDS011;58855;44.984;20.158;2022-08-07T15:10:08;7.47;;;3.33;;
55340;SDS011;58855;44.984;20.158;2022-08-07T15:12:34;7.65;;;3.80;;
55340;SDS011;58855;44.984;20.158;2022-08-07T15:15:08;8.75;;;4.15;;
55340;SDS011;58855;44.984;20.158;2022-08-07T15:17:42;7.32;;;3.40;;
55340;SDS011;58855;44.984;20.158;2022-08-07T15:20:10;6.97;;;4.10;;
55340;SDS011;58855;44.984;20.158;2022-08-07T15:22:44;9.30;;;3.80;;
55340;SDS011;58855;44.984;20.158;2022-08-07T15:25:12;7.65;;;3.72;;
55340;SDS011;58855;44.984;20.158;2022-08-07T15:27:39;7.38;;;3.80;;
55340;SDS011;58855;44.984;20.158;2022-08-07T15:30:07;6.75;;;3.40;;
55340;SDS011;58855;44.984;20.158;2022-08-07T15:32:33;7.63;;;3.63;;
55340;SDS011;58855;44.984;20.158;2022-08-07T15:35:04;7.45;;;4.07;;
55340;SDS011;58855;44.984;20.158;2022-08-07T15:37:33;5.50;;;3.53;;
55340;SDS011;58855;44.984;20.158;2022-08-07T15:39:59;7.25;;;3.25;;
55340;SDS011;58855;44.984;20.158;2022-08-07T15:45:01;11.02;;;4.10;;
55340;SDS011;58855;44.984;20.158;2022-08-07T15:47:31;9.30;;;4.97;;
55340;SDS011;58855;44.984;20.158;2022-08-07T15:49:59;8.27;;;4.63;;
55340;SDS011;58855;44.984;20.158;2022-08-07T15:52:27;5.40;;;3.42;;
55340;SDS011;58855;44.984;20.158;2022-08-07T15:54:55;8.95;;;4.10;;
55340;SDS011;58855;44.984;20.158;2022-08-07T15:57:23;7.28;;;3.90;;
55340;SDS011;58855;44.984;20.158;2022-08-07T15:59:51;6.60;;;3.78;;
55340;SDS011;58855;44.984;20.158;2022-08-07T16:02:25;6.15;;;3.75;;
55340;SDS011;58855;44.984;20.158;2022-08-07T16:04:56;6.57;;;3.50;;
55340;SDS011;58855;44.984;20.158;2022-08-07T16:07:25;7.13;;;4.93;;
55340;SDS011;58855;44.984;20.158;2022-08-07T16:09:52;12.20;;;4.50;;
55340;SDS011;58855;44.984;20.158;2022-08-07T16:15:21;7.72;;;4.55;;
55340;SDS011;58855;44.984;20.158;2022-08-07T16:25:49;11.43;;;4.65;;
55340;SDS011;58855;44.984;20.158;2022-08-07T16:31:13;13.38;;;11.07;;
55340;SDS011;58855;44.984;20.158;2022-08-07T16:33:42;10.88;;;4.70;;
55340;SDS011;58855;44.984;20.158;2022-08-07T16:38:40;6.05;;;4.05;;
55340;SDS011;58855;44.984;20.158;2022-08-07T16:41:19;11.33;;;4.40;;
55340;SDS011;58855;44.984;20.158;2022-08-07T16:51:49;5.93;;;4.50;;
55340;SDS011;58855;44.984;20.158;2022-08-07T16:59:31;12.32;;;3.78;;
55340;SDS011;58855;44.984;20.158;2022-08-07T17:04:32;5.57;;;4.28;;
55340;SDS011;58855;44.984;20.158;2022-08-07T17:12:18;12.25;;;5.00;;
55340;SDS011;58855;44.984;20.158;2022-08-07T17:14:56;8.98;;;4.63;;
55340;SDS011;58855;44.984;20.158;2022-08-07T17:22:56;14.70;;;4.20;;
55340;SDS011;58855;44.984;20.158;2022-08-07T17:25:25;11.20;;;4.38;;
55340;SDS011;58855;44.984;20.158;2022-08-07T17:28:00;8.15;;;3.75;;
55340;SDS011;58855;44.984;20.158;2022-08-07T17:30:29;12.30;;;4.03;;
55340;SDS011;58855;44.984;20.158;2022-08-07T17:33:21;11.13;;;3.83;;
55340;SDS011;58855;44.984;20.158;2022-08-07T17:38:31;8.77;;;3.80;;
55340;SDS011;58855;44.984;20.158;2022-08-07T17:43:33;15.75;;;6.47;;
55340;SDS011;58855;44.984;20.158;2022-08-07T17:48:38;8.63;;;4.17;;
55340;SDS011;58855;44.984;20.158;2022-08-07T17:51:08;7.33;;;3.33;;
55340;SDS011;58855;44.984;20.158;2022-08-07T17:56:45;10.25;;;4.05;;
55340;SDS011;58855;44.984;20.158;2022-08-07T17:59:19;8.45;;;3.85;;
55340;SDS011;58855;44.984;20.158;2022-08-07T18:04:26;6.47;;;3.42;;
55340;SDS011;58855;44.984;20.158;2022-08-07T18:09:31;8.30;;;3.40;;
55340;SDS011;58855;44.984;20.158;2022-08-07T18:12:04;7.40;;;3.67;;
55340;SDS011;58855;44.984;20.158;2022-08-07T18:14:33;12.82;;;3.70;;
55340;SDS011;58855;44.984;20.158;2022-08-07T18:20:01;6.13;;;3.17;;
55340;SDS011;58855;44.984;20.158;2022-08-07T18:22:32;9.60;;;4.50;;
55340;SDS011;58855;44.984;20.158;2022-08-07T18:25:00;12.90;;;4.60;;
55340;SDS011;58855;44.984;20.158;2022-08-07T18:30:07;11.82;;;6.47;;
55340;SDS011;58855;44.984;20.158;2022-08-07T18:32:46;16.45;;;6.43;;
55340;SDS011;58855;44.984;20.158;2022-08-07T18:35:20;11.57;;;6.20;;